Time;durP1;ratioP1;P1;durP2;ratioP2;P2;SDS_P1;SDS_P2;PMS_P1;PMS_P2;Temp;Humidity;BMP_temperature;BMP_pressure;BME280_temperature;BME280_humidity;BME280_pressure;Samples;Min_cycle;Max_cycle;Signal;HPM_P1;HPM_P2
2023/08/18 00:00:11;;;;;;;2.88;2.78;;;;;;;;;;4950809;28;20215;-65
2023/08/18 00:02:38;;;;;;;3.15;2.90;;;;;;;;;;4950953;28;20757;-65
2023/08/18 00:05:06;;;;;;;4.10;2.80;;;;;;;;;;4935670;28;20235;-65
2023/08/18 00:07:33;;;;;;;3.40;3.10;;;;;;;;;;4938934;29;20221;-65
2023/08/18 00:10:00;;;;;;;2.88;2.78;;;;;;;;;;4950961;28;20217;-65
2023/08/18 00:12:27;;;;;;;2.85;2.75;;;;;;;;;;4950283;28;20249;-65
2023/08/18 00:14:55;;;;;;;3.95;3.60;;;;;;;;;;4950654;28;20682;-65
2023/08/18 00:17:22;;;;;;;2.92;2.72;;;;;;;;;;4950301;28;20203;-65
2023/08/18 00:19:49;;;;;;;3.95;2.80;;;;;;;;;;4950592;28;20292;-65
2023/08/18 00:22:17;;;;;;;3.67;3.35;;;;;;;;;;4949737;28;20452;-65
2023/08/18 00:24:44;;;;;;;2.92;2.83;;;;;;;;;;4950462;28;20222;-65
2023/08/18 00:27:11;;;;;;;2.92;2.83;;;;;;;;;;4950099;28;20314;-66
2023/08/18 00:29:38;;;;;;;3.10;2.95;;;;;;;;;;4950411;28;20744;-66
2023/08/18 00:32:07;;;;;;;3.10;2.90;;;;;;;;;;4949818;28;20218;-66
2023/08/18 00:34:34;;;;;;;3.15;2.95;;;;;;;;;;4950551;28;20222;-66
2023/08/18 00:37:02;;;;;;;3.85;3.25;;;;;;;;;;4945977;28;20224;-66
2023/08/18 00:39:34;;;;;;;3.40;3.10;;;;;;;;;;4949760;28;20233;-66
2023/08/18 00:42:01;;;;;;;4.10;3.80;;;;;;;;;;4950087;28;20293;-64
2023/08/18 00:44:28;;;;;;;3.50;3.30;;;;;;;;;;4942315;28;20255;-64
2023/08/18 00:46:55;;;;;;;4.15;3.85;;;;;;;;;;4940519;29;20685;-64
2023/08/18 00:49:23;;;;;;;5.22;3.95;;;;;;;;;;4939893;28;20211;-64
2023/08/18 00:51:51;;;;;;;3.72;3.45;;;;;;;;;;4942535;28;20258;-65
2023/08/18 00:54:18;;;;;;;3.60;3.45;;;;;;;;;;4939237;29;20220;-64
2023/08/18 00:56:46;;;;;;;3.40;3.20;;;;;;;;;;4940311;28;20226;-65
2023/08/18 00:59:13;;;;;;;3.53;3.33;;;;;;;;;;4938455;28;20422;-64
2023/08/18 01:01:41;;;;;;;3.47;3.20;;;;;;;;;;4936709;28;20969;-64
2023/08/18 01:04:08;;;;;;;3.40;3.05;;;;;;;;;;4938063;29;20892;-64
2023/08/18 01:06:38;;;;;;;3.55;3.45;;;;;;;;;;4936888;29;20207;-64
2023/08/18 01:09:06;;;;;;;3.80;3.60;;;;;;;;;;4940614;28;20741;-64
2023/08/18 01:11:36;;;;;;;3.70;3.53;;;;;;;;;;4940359;29;20289;-64
2023/08/18 01:14:07;;;;;;;4.40;3.75;;;;;;;;;;4940168;28;20318;-64
2023/08/18 01:16:36;;;;;;;4.32;3.55;;;;;;;;;;4940467;29;20218;-64
2023/08/18 01:19:03;;;;;;;3.47;3.17;;;;;;;;;;4945445;29;20199;-65
2023/08/18 01:21:31;;;;;;;4.18;3.80;;;;;;;;;;4943008;28;20215;-65
2023/08/18 01:24:04;;;;;;;4.20;4.00;;;;;;;;;;4942903;28;20204;-66
2023/08/18 01:26:31;;;;;;;3.90;3.63;;;;;;;;;;4946326;28;20206;-63
2023/08/18 01:28:58;;;;;;;4.00;3.80;;;;;;;;;;4937084;29;20228;-63
2023/08/18 01:31:29;;;;;;;5.50;3.60;;;;;;;;;;4941448;28;20211;-64
2023/08/18 01:34:00;;;;;;;4.40;4.00;;;;;;;;;;4942584;28;20231;-64
2023/08/18 01:36:29;;;;;;;4.10;3.90;;;;;;;;;;4941829;28;20209;-65
2023/08/18 01:38:57;;;;;;;4.35;3.92;;;;;;;;;;4935099;29;20207;-64
2023/08/18 01:41:26;;;;;;;4.47;3.92;;;;;;;;;;4939262;28;20204;-64
2023/08/18 01:43:53;;;;;;;5.45;4.28;;;;;;;;;;4937826;28;20717;-64
2023/08/18 01:46:20;;;;;;;4.00;3.70;;;;;;;;;;4938684;28;20214;-64
2023/08/18 01:48:47;;;;;;;4.35;4.15;;;;;;;;;;4939817;29;20590;-65
2023/08/18 01:51:14;;;;;;;3.80;3.60;;;;;;;;;;4940524;28;20673;-64
2023/08/18 01:53:42;;;;;;;5.20;4.90;;;;;;;;;;4940933;28;20227;-64
2023/08/18 01:56:09;;;;;;;4.15;3.90;;;;;;;;;;4941702;28;20221;-64
2023/08/18 01:58:38;;;;;;;7.47;4.28;;;;;;;;;;4945082;28;20210;-64
2023/08/18 02:01:05;;;;;;;4.45;4.18;;;;;;;;;;4944173;28;20254;-65
2023/08/18 02:03:32;;;;;;;4.72;4.28;;;;;;;;;;4944629;28;20678;-64
2023/08/18 02:06:00;;;;;;;4.82;4.40;;;;;;;;;;4942608;28;20215;-64
2023/08/18 02:08:27;;;;;;;4.53;4.10;;;;;;;;;;4948125;28;20213;-65
2023/08/18 02:11:01;;;;;;;4.05;3.80;;;;;;;;;;4943324;28;20226;-64
2023/08/18 02:13:28;;;;;;;4.53;4.22;;;;;;;;;;4945481;28;20614;-65
2023/08/18 02:15:57;;;;;;;4.22;4.03;;;;;;;;;;4946379;28;20445;-64
2023/08/18 02:18:24;;;;;;;4.18;3.85;;;;;;;;;;4943300;29;20206;-64
2023/08/18 02:20:55;;;;;;;7.88;4.50;;;;;;;;;;4944928;29;20214;-64
2023/08/18 02:23:22;;;;;;;4.88;4.47;;;;;;;;;;4945888;28;20206;-64
2023/08/18 02:25:49;;;;;;;6.78;4.57;;;;;;;;;;4944501;28;20215;-64
2023/08/18 02:28:17;;;;;;;4.07;3.88;;;;;;;;;;4949606;28;20713;-64
2023/08/18 02:30:45;;;;;;;4.18;3.88;;;;;;;;;;4943935;29;20231;-64
2023/08/18 02:33:13;;;;;;;3.72;3.50;;;;;;;;;;4946711;28;20259;-64
2023/08/18 02:35:43;;;;;;;3.97;3.78;;;;;;;;;;4947843;28;20231;-65
2023/08/18 02:38:14;;;;;;;4.00;3.80;;;;;;;;;;4951059;29;20669;-65
2023/08/18 02:40:41;;;;;;;4.00;3.55;;;;;;;;;;4955082;28;20203;-65
2023/08/18 02:43:09;;;;;;;3.83;3.63;;;;;;;;;;4955248;28;20234;-64
2023/08/18 02:45:37;;;;;;;3.60;3.30;;;;;;;;;;4955159;28;20211;-65
2023/08/18 02:48:04;;;;;;;4.05;3.67;;;;;;;;;;4954021;28;20222;-65
2023/08/18 02:50:32;;;;;;;3.50;3.20;;;;;;;;;;4955342;28;20214;-65
2023/08/18 02:53:03;;;;;;;3.78;3.58;;;;;;;;;;4955431;28;20207;-65
2023/08/18 02:55:30;;;;;;;3.50;3.30;;;;;;;;;;4955139;28;20589;-65
2023/08/18 02:57:57;;;;;;;4.72;3.50;;;;;;;;;;4955593;28;20318;-65
2023/08/18 03:00:26;;;;;;;4.38;3.95;;;;;;;;;;4955157;28;20207;-64
2023/08/18 03:02:53;;;;;;;3.78;3.65;;;;;;;;;;4955206;28;20753;-64
2023/08/18 03:05:20;;;;;;;5.50;3.50;;;;;;;;;;4954798;28;20207;-64
2023/08/18 03:07:48;;;;;;;4.22;4.00;;;;;;;;;;4951145;28;20809;-63
2023/08/18 03:10:15;;;;;;;4.30;3.65;;;;;;;;;;4952364;28;20207;-63
2023/08/18 03:12:42;;;;;;;5.50;3.28;;;;;;;;;;4951871;28;20226;-64
2023/08/18 03:15:10;;;;;;;4.35;3.70;;;;;;;;;;4951922;28;20231;-64
2023/08/18 03:17:37;;;;;;;3.97;3.78;;;;;;;;;;4951902;28;20211;-63
2023/08/18 03:20:06;;;;;;;4.00;3.70;;;;;;;;;;4950766;28;20237;-63
2023/08/18 03:22:34;;;;;;;4.05;3.70;;;;;;;;;;4951915;28;20211;-64
2023/08/18 03:25:03;;;;;;;5.38;3.78;;;;;;;;;;4951528;28;20207;-64
2023/08/18 03:27:30;;;;;;;4.65;3.63;;;;;;;;;;4951427;28;20246;-63
2023/08/18 03:29:57;;;;;;;4.20;3.90;;;;;;;;;;4950986;28;20270;-64
2023/08/18 03:32:25;;;;;;;5.35;4.97;;;;;;;;;;4951490;29;20215;-63
2023/08/18 03:34:54;;;;;;;3.67;3.47;;;;;;;;;;4951080;28;20227;-63
2023/08/18 03:37:21;;;;;;;3.30;3.20;;;;;;;;;;4951510;28;20701;-63
2023/08/18 03:39:48;;;;;;;3.70;3.60;;;;;;;;;;4948836;28;20220;-64
2023/08/18 03:42:16;;;;;;;5.80;4.30;;;;;;;;;;4940421;28;20211;-63
2023/08/18 03:44:43;;;;;;;3.90;3.65;;;;;;;;;;4945426;29;20211;-63
2023/08/18 03:47:10;;;;;;;4.30;3.97;;;;;;;;;;4939709;28;20207;-63
2023/08/18 03:49:37;;;;;;;4.35;3.75;;;;;;;;;;4945727;28;20199;-63
2023/08/18 03:52:04;;;;;;;4.45;3.92;;;;;;;;;;4946683;28;20215;-64
2023/08/18 03:54:31;;;;;;;4.10;3.72;;;;;;;;;;4941685;28;20980;-64
2023/08/18 03:56:58;;;;;;;4.50;4.10;;;;;;;;;;4942660;29;20215;-63
2023/08/18 03:59:27;;;;;;;4.20;3.90;;;;;;;;;;4945867;28;20203;-65
2023/08/18 04:01:54;;;;;;;4.55;4.20;;;;;;;;;;4948907;28;20222;-65
2023/08/18 04:04:21;;;;;;;4.60;4.30;;;;;;;;;;4950746;28;20233;-65
2023/08/18 04:06:48;;;;;;;4.65;4.40;;;;;;;;;;4951517;28;20211;-65
2023/08/18 04:09:16;;;;;;;4.65;4.25;;;;;;;;;;4950916;28;20211;-65
2023/08/18 04:11:43;;;;;;;4.43;4.20;;;;;;;;;;4950901;29;20207;-65
2023/08/18 04:14:11;;;;;;;4.63;4.22;;;;;;;;;;4947558;28;20247;-65
2023/08/18 04:16:39;;;;;;;4.68;4.13;;;;;;;;;;4950132;28;20218;-65
2023/08/18 04:19:06;;;;;;;8.15;4.57;;;;;;;;;;4950153;28;20290;-64
2023/08/18 04:21:33;;;;;;;4.93;4.43;;;;;;;;;;4950974;28;20215;-64
2023/08/18 04:24:00;;;;;;;5.20;4.30;;;;;;;;;;4950452;28;20207;-63
2023/08/18 04:26:29;;;;;;;4.30;4.10;;;;;;;;;;4949099;28;20684;-63
2023/08/18 04:28:56;;;;;;;5.43;4.93;;;;;;;;;;4950616;28;20239;-64
2023/08/18 04:31:23;;;;;;;5.30;4.55;;;;;;;;;;4950089;28;20246;-64
2023/08/18 04:33:51;;;;;;;5.25;4.43;;;;;;;;;;4949440;28;20223;-64
2023/08/18 04:36:18;;;;;;;5.18;4.80;;;;;;;;;;4949913;28;20221;-63
2023/08/18 04:38:45;;;;;;;4.13;3.92;;;;;;;;;;4951175;28;20277;-64
2023/08/18 04:41:12;;;;;;;5.18;4.65;;;;;;;;;;4950123;28;20209;-63
2023/08/18 04:43:39;;;;;;;4.82;4.43;;;;;;;;;;4950294;28;20207;-63
2023/08/18 04:46:06;;;;;;;5.97;4.68;;;;;;;;;;4949698;28;20206;-64
2023/08/18 04:48:33;;;;;;;4.88;4.43;;;;;;;;;;4950194;28;20215;-66
2023/08/18 04:51:02;;;;;;;8.00;4.80;;;;;;;;;;4950416;28;20219;-64
2023/08/18 04:53:29;;;;;;;4.75;4.35;;;;;;;;;;4950330;28;20218;-64
2023/08/18 04:55:56;;;;;;;5.72;5.05;;;;;;;;;;4950000;28;20230;-66
2023/08/18 04:58:23;;;;;;;5.15;4.85;;;;;;;;;;4949582;29;20223;-64
2023/08/18 05:00:50;;;;;;;4.65;4.32;;;;;;;;;;4950653;28;20219;-64
2023/08/18 05:03:17;;;;;;;4.32;4.13;;;;;;;;;;4949872;28;20215;-65
2023/08/18 05:05:57;;;;;;;6.88;4.85;;;;;;;;;;4950100;28;20210;-66
2023/08/18 05:08:26;;;;;;;6.35;4.75;;;;;;;;;;4950186;28;20583;-64
2023/08/18 05:10:53;;;;;;;20.00;14.30;;;;;;;;;;4947192;28;20206;-63
2023/08/18 05:13:20;;;;;;;5.65;5.15;;;;;;;;;;4949679;28;20309;-64
2023/08/18 05:15:48;;;;;;;5.25;4.80;;;;;;;;;;4949543;28;20297;-64
2023/08/18 05:18:15;;;;;;;5.97;4.55;;;;;;;;;;4949541;28;20718;-64
2023/08/18 05:20:42;;;;;;;5.15;4.40;;;;;;;;;;4949201;28;20222;-64
2023/08/18 05:23:09;;;;;;;5.95;4.63;;;;;;;;;;4949285;28;20234;-67
2023/08/18 05:25:37;;;;;;;5.10;4.70;;;;;;;;;;4949776;28;20217;-64
2023/08/18 05:28:04;;;;;;;6.25;5.15;;;;;;;;;;4942075;28;20230;-64
2023/08/18 05:30:31;;;;;;;4.88;4.40;;;;;;;;;;4948888;28;20716;-64
2023/08/18 05:32:58;;;;;;;4.90;4.50;;;;;;;;;;4948705;28;20301;-63
2023/08/18 05:35:25;;;;;;;4.80;4.30;;;;;;;;;;4949262;28;20223;-64
2023/08/18 05:37:52;;;;;;;4.55;4.25;;;;;;;;;;4948517;28;20207;-64
2023/08/18 05:40:20;;;;;;;4.65;4.28;;;;;;;;;;4947592;28;20214;-65
2023/08/18 05:42:48;;;;;;;7.00;4.47;;;;;;;;;;4943393;28;20218;-63
2023/08/18 05:45:16;;;;;;;4.93;4.53;;;;;;;;;;4945208;28;20294;-64
2023/08/18 05:47:43;;;;;;;4.03;3.88;;;;;;;;;;4948489;28;20199;-64
2023/08/18 05:50:11;;;;;;;4.68;4.47;;;;;;;;;;4948985;28;20669;-64
2023/08/18 05:52:39;;;;;;;4.50;4.10;;;;;;;;;;4940398;29;21161;-64
2023/08/18 05:55:06;;;;;;;4.53;3.72;;;;;;;;;;4948612;28;20234;-64
2023/08/18 05:57:35;;;;;;;4.25;4.03;;;;;;;;;;4946946;28;20207;-65
2023/08/18 06:00:05;;;;;;;4.97;3.65;;;;;;;;;;4947740;28;20337;-64
2023/08/18 06:02:32;;;;;;;3.90;3.67;;;;;;;;;;4947813;28;20220;-63
2023/08/18 06:05:00;;;;;;;4.30;4.00;;;;;;;;;;4947387;28;20206;-66
2023/08/18 06:07:27;;;;;;;3.30;3.20;;;;;;;;;;4948115;28;20250;-68
2023/08/18 06:09:54;;;;;;;3.65;3.15;;;;;;;;;;4948124;28;20211;-68
2023/08/18 06:12:21;;;;;;;3.83;3.55;;;;;;;;;;4947010;28;20199;-67
2023/08/18 06:14:48;;;;;;;3.70;3.53;;;;;;;;;;4947729;28;20238;-66
2023/08/18 06:17:16;;;;;;;4.38;3.50;;;;;;;;;;4947518;28;20218;-70
2023/08/18 06:19:43;;;;;;;3.70;3.40;;;;;;;;;;4944931;28;20208;-69
2023/08/18 06:22:10;;;;;;;4.15;3.95;;;;;;;;;;4947976;28;20269;-68
2023/08/18 06:24:37;;;;;;;3.63;3.40;;;;;;;;;;4947333;28;20211;-70
2023/08/18 06:27:04;;;;;;;4.15;3.83;;;;;;;;;;4947602;28;20385;-70
2023/08/18 06:29:31;;;;;;;3.60;3.30;;;;;;;;;;4947349;28;20239;-69
2023/08/18 06:31:58;;;;;;;4.03;3.38;;;;;;;;;;4947362;28;20218;-68
2023/08/18 06:34:27;;;;;;;3.67;3.33;;;;;;;;;;4947925;28;20230;-69
2023/08/18 06:36:54;;;;;;;3.60;3.30;;;;;;;;;;4947883;28;20599;-69
2023/08/18 06:39:21;;;;;;;7.50;3.30;;;;;;;;;;4946992;28;20211;-68
2023/08/18 06:41:48;;;;;;;3.40;3.20;;;;;;;;;;4949253;28;20226;-71
2023/08/18 06:44:15;;;;;;;3.72;3.53;;;;;;;;;;4951236;28;20211;-69
2023/08/18 06:46:42;;;;;;;3.78;3.28;;;;;;;;;;4950881;28;20583;-68
2023/08/18 06:49:10;;;;;;;6.18;3.65;;;;;;;;;;4950986;28;20223;-69
2023/08/18 06:51:39;;;;;;;4.15;3.60;;;;;;;;;;4951566;28;20215;-69
2023/08/18 06:54:06;;;;;;;3.42;3.30;;;;;;;;;;4950593;28;20225;-67
2023/08/18 06:56:33;;;;;;;4.38;3.50;;;;;;;;;;4950719;28;20222;-63
2023/08/18 06:59:00;;;;;;;7.65;3.47;;;;;;;;;;4950912;28;20210;-63
2023/08/18 07:01:27;;;;;;;3.78;3.10;;;;;;;;;;4950594;28;20211;-64
2023/08/18 07:03:54;;;;;;;3.58;3.25;;;;;;;;;;4949661;28;20212;-63
2023/08/18 07:06:21;;;;;;;4.47;3.20;;;;;;;;;;4950384;28;20210;-62
2023/08/18 07:08:50;;;;;;;4.85;3.47;;;;;;;;;;4950332;28;20211;-63
2023/08/18 07:11:17;;;;;;;3.65;3.33;;;;;;;;;;4940373;29;20207;-63
2023/08/18 07:13:45;;;;;;;8.57;3.55;;;;;;;;;;4950180;28;20817;-63
2023/08/18 07:16:12;;;;;;;4.28;3.45;;;;;;;;;;4949828;28;20241;-62
2023/08/18 07:18:39;;;;;;;3.60;3.40;;;;;;;;;;4949970;28;20211;-72
2023/08/18 07:21:06;;;;;;;3.70;3.50;;;;;;;;;;4949908;28;20677;-75
2023/08/18 07:23:33;;;;;;;3.40;3.20;;;;;;;;;;4950032;28;20207;-74
2023/08/18 07:26:02;;;;;;;3.38;3.00;;;;;;;;;;4949981;28;20207;-73
2023/08/18 07:28:29;;;;;;;3.85;3.55;;;;;;;;;;4942533;28;20238;-74
2023/08/18 07:31:02;;;;;;;3.22;3.00;;;;;;;;;;4931192;28;20239;-74
2023/08/18 07:33:29;;;;;;;4.13;3.42;;;;;;;;;;4936889;29;20262;-72
2023/08/18 07:35:56;;;;;;;3.08;2.97;;;;;;;;;;4949486;28;20227;-73
2023/08/18 07:38:24;;;;;;;3.60;3.00;;;;;;;;;;4947753;28;20214;-66
2023/08/18 07:40:51;;;;;;;3.55;3.30;;;;;;;;;;4937616;28;20233;-64
2023/08/18 07:43:19;;;;;;;3.85;3.42;;;;;;;;;;4949391;28;20338;-64
2023/08/18 07:45:46;;;;;;;4.35;3.97;;;;;;;;;;4950150;28;20642;-64
2023/08/18 07:48:13;;;;;;;3.53;3.30;;;;;;;;;;4949923;28;20211;-64
2023/08/18 07:50:42;;;;;;;3.20;3.00;;;;;;;;;;4949723;28;20215;-64
2023/08/18 07:53:09;;;;;;;3.55;3.25;;;;;;;;;;4946947;28;20230;-64
2023/08/18 07:55:37;;;;;;;4.15;3.53;;;;;;;;;;4941295;28;20579;-65
2023/08/18 07:58:04;;;;;;;3.15;3.05;;;;;;;;;;4936536;28;20536;-64
2023/08/18 08:00:32;;;;;;;3.45;3.25;;;;;;;;;;4939690;28;20199;-64
2023/08/18 08:02:59;;;;;;;2.90;2.80;;;;;;;;;;4940460;29;20558;-64
2023/08/18 08:05:27;;;;;;;5.97;3.17;;;;;;;;;;4943478;29;20203;-63
2023/08/18 08:07:54;;;;;;;3.35;3.10;;;;;;;;;;4949411;28;20211;-64
2023/08/18 08:10:21;;;;;;;3.70;2.92;;;;;;;;;;4949183;28;20673;-65
2023/08/18 08:12:49;;;;;;;3.22;2.92;;;;;;;;;;4946517;28;20584;-64
2023/08/18 08:15:16;;;;;;;3.65;3.53;;;;;;;;;;4949159;28;20317;-64
2023/08/18 08:17:44;;;;;;;3.08;2.97;;;;;;;;;;4948900;28;20307;-63
2023/08/18 08:20:15;;;;;;;4.53;3.20;;;;;;;;;;4939945;28;20206;-64
2023/08/18 08:22:42;;;;;;;4.28;3.35;;;;;;;;;;4940363;28;20208;-63
2023/08/18 08:25:10;;;;;;;3.38;3.25;;;;;;;;;;4938419;28;20226;-63
2023/08/18 08:27:37;;;;;;;4.40;3.15;;;;;;;;;;4941739;28;20226;-64
2023/08/18 08:30:05;;;;;;;4.28;2.97;;;;;;;;;;4947359;28;20824;-64
2023/08/18 08:32:32;;;;;;;3.42;3.10;;;;;;;;;;4943619;29;20339;-64
2023/08/18 08:35:00;;;;;;;3.22;2.97;;;;;;;;;;4947459;28;20360;-64
2023/08/18 08:37:27;;;;;;;3.15;2.95;;;;;;;;;;4947916;28;20211;-63
2023/08/18 08:39:54;;;;;;;3.85;3.47;;;;;;;;;;4949030;28;20253;-64
2023/08/18 08:42:21;;;;;;;3.15;3.00;;;;;;;;;;4948687;28;20234;-63
2023/08/18 08:44:48;;;;;;;3.28;3.08;;;;;;;;;;4948583;28;20217;-63
2023/08/18 08:47:16;;;;;;;3.30;3.20;;;;;;;;;;4948812;28;20674;-65
2023/08/18 08:49:44;;;;;;;5.47;3.00;;;;;;;;;;4947703;28;20211;-63
2023/08/18 08:52:13;;;;;;;3.00;2.90;;;;;;;;;;4940319;28;20683;-64
2023/08/18 08:54:42;;;;;;;3.67;3.40;;;;;;;;;;4944640;29;20298;-64
2023/08/18 08:57:10;;;;;;;3.42;3.22;;;;;;;;;;4946179;28;20285;-64
2023/08/18 08:59:37;;;;;;;2.88;2.78;;;;;;;;;;4944883;28;20277;-64
2023/08/18 09:02:04;;;;;;;3.42;3.13;;;;;;;;;;4945195;28;20400;-64
2023/08/18 09:04:31;;;;;;;2.90;2.72;;;;;;;;;;4945950;28;20226;-65
2023/08/18 09:06:58;;;;;;;3.47;3.08;;;;;;;;;;4947531;28;20214;-68
2023/08/18 09:09:27;;;;;;;2.85;2.65;;;;;;;;;;4947058;28;20218;-65
2023/08/18 09:11:59;;;;;;;4.57;2.72;;;;;;;;;;4945935;28;20211;-69
2023/08/18 09:14:28;;;;;;;3.78;3.33;;;;;;;;;;4948476;28;20264;-68
2023/08/18 09:16:55;;;;;;;3.22;2.97;;;;;;;;;;4946560;28;20318;-69
2023/08/18 09:19:22;;;;;;;3.33;3.03;;;;;;;;;;4948067;28;20218;-70
2023/08/18 09:21:51;;;;;;;2.95;2.75;;;;;;;;;;4948345;28;20242;-68
2023/08/18 09:24:21;;;;;;;3.67;2.88;;;;;;;;;;4948525;28;20211;-67
2023/08/18 09:26:49;;;;;;;5.32;2.85;;;;;;;;;;4947670;28;20609;-65
2023/08/18 09:29:16;;;;;;;3.08;2.88;;;;;;;;;;4947152;28;20812;-65
2023/08/18 09:31:44;;;;;;;2.85;2.75;;;;;;;;;;4948422;28;20274;-65
2023/08/18 09:34:19;;;;;;;3.17;3.08;;;;;;;;;;4946437;28;20222;-65
2023/08/18 09:36:52;;;;;;;3.65;3.00;;;;;;;;;;4927461;29;20246;-65
2023/08/18 09:39:19;;;;;;;3.33;2.90;;;;;;;;;;4932150;28;20681;-66
2023/08/18 09:41:47;;;;;;;3.00;2.80;;;;;;;;;;4947052;28;20655;-65
2023/08/18 09:44:15;;;;;;;3.60;3.20;;;;;;;;;;4947531;28;20206;-65
2023/08/18 09:46:43;;;;;;;2.60;2.50;;;;;;;;;;4947859;28;20720;-66
2023/08/18 09:49:10;;;;;;;4.28;3.22;;;;;;;;;;4946944;28;20710;-65
2023/08/18 09:51:38;;;;;;;4.28;2.90;;;;;;;;;;4947129;28;20229;-65
2023/08/18 09:54:06;;;;;;;4.70;2.80;;;;;;;;;;4947905;28;20211;-65
2023/08/18 09:56:37;;;;;;;3.00;2.75;;;;;;;;;;4947539;28;20829;-65
2023/08/18 09:59:11;;;;;;;2.92;2.83;;;;;;;;;;4947799;28;20913;-65
2023/08/18 10:01:40;;;;;;;2.83;2.72;;;;;;;;;;4928694;29;20799;-66
2023/08/18 10:04:08;;;;;;;3.75;2.72;;;;;;;;;;4938375;29;20199;-65
2023/08/18 10:06:39;;;;;;;2.78;2.63;;;;;;;;;;4946326;28;20658;-66
2023/08/18 10:09:06;;;;;;;2.60;2.40;;;;;;;;;;4947414;28;20219;-66
2023/08/18 10:11:35;;;;;;;3.63;2.80;;;;;;;;;;4947240;28;20723;-65
2023/08/18 10:14:03;;;;;;;2.90;2.70;;;;;;;;;;4947701;28;20294;-66
2023/08/18 10:16:30;;;;;;;5.07;2.85;;;;;;;;;;4948951;28;20272;-66
2023/08/18 10:18:59;;;;;;;4.65;3.15;;;;;;;;;;4947167;28;20207;-66
2023/08/18 10:21:27;;;;;;;4.57;2.97;;;;;;;;;;4945936;28;20258;-64
2023/08/18 10:23:54;;;;;;;3.13;2.90;;;;;;;;;;4946009;28;20681;-64
2023/08/18 10:26:24;;;;;;;2.67;2.47;;;;;;;;;;4951116;28;20203;-65
2023/08/18 10:28:53;;;;;;;3.08;2.88;;;;;;;;;;4950932;28;20258;-69
2023/08/18 10:31:21;;;;;;;3.17;2.90;;;;;;;;;;4951312;28;20242;-67
2023/08/18 10:33:49;;;;;;;3.83;3.05;;;;;;;;;;4950931;28;20207;-66
2023/08/18 10:36:22;;;;;;;2.60;2.50;;;;;;;;;;4950304;28;20231;-67
2023/08/18 10:38:51;;;;;;;2.90;2.70;;;;;;;;;;4950213;28;20207;-67
2023/08/18 10:41:25;;;;;;;2.55;2.35;;;;;;;;;;4950714;28;20622;-67
2023/08/18 10:43:56;;;;;;;5.25;2.80;;;;;;;;;;4951148;28;20218;-69
2023/08/18 10:46:25;;;;;;;3.10;2.90;;;;;;;;;;4950552;28;20222;-67
2023/08/18 10:48:52;;;;;;;2.85;2.75;;;;;;;;;;4948764;28;20266;-68
2023/08/18 10:51:21;;;;;;;3.13;2.92;;;;;;;;;;4948247;28;20211;-66
2023/08/18 10:53:50;;;;;;;5.35;2.92;;;;;;;;;;4950308;28;20206;-69
2023/08/18 10:56:17;;;;;;;2.90;2.65;;;;;;;;;;4948090;28;20586;-68
2023/08/18 10:58:44;;;;;;;2.63;2.45;;;;;;;;;;4950016;28;20347;-68
2023/08/18 11:01:11;;;;;;;3.53;2.53;;;;;;;;;;4944913;28;20211;-68
2023/08/18 11:03:40;;;;;;;3.17;2.88;;;;;;;;;;4950148;28;20206;-67
2023/08/18 11:06:07;;;;;;;4.68;2.95;;;;;;;;;;4950126;28;20721;-68
2023/08/18 11:08:36;;;;;;;2.47;2.28;;;;;;;;;;4950419;28;20219;-68
2023/08/18 11:11:03;;;;;;;5.50;2.85;;;;;;;;;;4950497;28;20223;-69
2023/08/18 11:13:30;;;;;;;4.20;2.55;;;;;;;;;;4949524;28;20207;-68
2023/08/18 11:15:58;;;;;;;2.92;2.72;;;;;;;;;;4949825;28;20626;-68
2023/08/18 11:18:25;;;;;;;3.03;2.78;;;;;;;;;;4944453;28;20298;-68
2023/08/18 11:20:53;;;;;;;2.95;2.80;;;;;;;;;;4949490;28;20300;-68
2023/08/18 11:23:20;;;;;;;2.90;2.70;;;;;;;;;;4949438;28;20215;-68
2023/08/18 11:25:48;;;;;;;3.35;3.05;;;;;;;;;;4950257;28;20215;-67
2023/08/18 11:28:16;;;;;;;3.63;2.42;;;;;;;;;;4948667;28;20262;-69
2023/08/18 11:30:43;;;;;;;6.05;2.80;;;;;;;;;;4950344;28;20270;-68
2023/08/18 11:33:10;;;;;;;3.17;2.88;;;;;;;;;;4949700;28;20215;-70
2023/08/18 11:35:37;;;;;;;3.20;2.97;;;;;;;;;;4949787;28;20292;-68
2023/08/18 11:38:04;;;;;;;3.97;2.88;;;;;;;;;;4950011;28;20207;-67
2023/08/18 11:40:36;;;;;;;3.40;3.20;;;;;;;;;;4949850;28;20221;-68
2023/08/18 11:43:09;;;;;;;2.75;2.55;;;;;;;;;;4949518;28;20777;-68
2023/08/18 11:45:37;;;;;;;3.22;2.80;;;;;;;;;;4949371;28;20207;-69
2023/08/18 11:48:05;;;;;;;5.45;2.60;;;;;;;;;;4949947;28;20235;-67
2023/08/18 11:50:32;;;;;;;3.10;2.83;;;;;;;;;;4950153;28;20217;-67
2023/08/18 11:52:59;;;;;;;4.72;3.10;;;;;;;;;;4948175;28;20214;-67
2023/08/18 11:55:31;;;;;;;3.17;2.97;;;;;;;;;;4949722;28;20215;-63
2023/08/18 11:57:58;;;;;;;2.97;2.67;;;;;;;;;;4948905;28;20737;-68
2023/08/18 12:00:34;;;;;;;3.67;2.83;;;;;;;;;;4949848;28;20211;-67
2023/08/18 12:03:02;;;;;;;2.90;2.80;;;;;;;;;;4947756;28;20249;-67
2023/08/18 12:05:30;;;;;;;3.70;2.70;;;;;;;;;;4938991;28;20294;-67
2023/08/18 12:07:58;;;;;;;3.22;3.00;;;;;;;;;;4948802;28;20335;-67
2023/08/18 12:10:25;;;;;;;3.00;2.80;;;;;;;;;;4949595;28;20203;-64
2023/08/18 12:12:53;;;;;;;2.65;2.55;;;;;;;;;;4944517;28;20551;-66
2023/08/18 12:15:21;;;;;;;3.30;3.10;;;;;;;;;;4947766;29;20210;-67
2023/08/18 12:17:49;;;;;;;3.03;2.83;;;;;;;;;;4949869;28;20325;-67
2023/08/18 12:20:19;;;;;;;3.08;2.80;;;;;;;;;;4936235;28;20241;-67
2023/08/18 12:22:46;;;;;;;2.75;2.50;;;;;;;;;;4941087;29;20314;-67
2023/08/18 12:25:13;;;;;;;4.45;3.05;;;;;;;;;;4949607;28;20242;-67
2023/08/18 12:27:41;;;;;;;2.92;2.70;;;;;;;;;;4949238;28;20241;-67
2023/08/18 12:30:09;;;;;;;2.90;2.45;;;;;;;;;;4949461;28;20298;-67
2023/08/18 12:32:36;;;;;;;3.60;2.83;;;;;;;;;;4948586;28;20323;-67
2023/08/18 12:35:04;;;;;;;5.35;2.88;;;;;;;;;;4949128;28;20226;-68
2023/08/18 12:37:31;;;;;;;2.92;2.72;;;;;;;;;;4948462;28;20328;-69
2023/08/18 12:39:59;;;;;;;2.47;2.40;;;;;;;;;;4948761;28;20211;-67
2023/08/18 12:42:26;;;;;;;2.80;2.60;;;;;;;;;;4948556;28;20875;-67
2023/08/18 12:44:53;;;;;;;2.80;2.65;;;;;;;;;;4948545;28;20210;-68
2023/08/18 12:47:20;;;;;;;6.00;2.83;;;;;;;;;;4948868;28;20210;-68
2023/08/18 12:49:47;;;;;;;2.50;2.30;;;;;;;;;;4944173;28;20199;-68
2023/08/18 12:52:16;;;;;;;3.03;2.88;;;;;;;;;;4947934;28;20665;-64
2023/08/18 12:54:44;;;;;;;3.20;2.67;;;;;;;;;;4948467;28;20206;-64
2023/08/18 12:57:11;;;;;;;2.95;2.78;;;;;;;;;;4948123;28;20325;-64
2023/08/18 12:59:38;;;;;;;2.45;2.35;;;;;;;;;;4948712;28;20209;-66
2023/08/18 13:02:05;;;;;;;4.32;2.97;;;;;;;;;;4948286;28;20214;-65
2023/08/18 13:04:33;;;;;;;3.28;2.90;;;;;;;;;;4948042;28;20287;-65
2023/08/18 13:07:00;;;;;;;2.47;2.38;;;;;;;;;;4948626;28;20210;-69
2023/08/18 13:09:31;;;;;;;6.90;3.03;;;;;;;;;;4948188;28;20225;-65
2023/08/18 13:12:01;;;;;;;2.78;2.42;;;;;;;;;;4947624;28;20218;-63
2023/08/18 13:14:29;;;;;;;2.92;2.72;;;;;;;;;;4939699;28;20216;-67
2023/08/18 13:16:56;;;;;;;3.03;2.65;;;;;;;;;;4935349;28;20266;-64
2023/08/18 13:19:23;;;;;;;2.78;2.67;;;;;;;;;;4933350;28;20215;-65
2023/08/18 13:21:50;;;;;;;2.50;2.40;;;;;;;;;;4940855;28;20301;-64
2023/08/18 13:24:17;;;;;;;3.22;3.03;;;;;;;;;;4948219;28;20211;-65
2023/08/18 13:26:45;;;;;;;2.50;2.30;;;;;;;;;;4948254;28;20206;-65
2023/08/18 13:29:12;;;;;;;2.70;2.50;;;;;;;;;;4948122;28;20234;-65
2023/08/18 13:31:39;;;;;;;2.88;2.67;;;;;;;;;;4947818;28;20209;-64
2023/08/18 13:34:06;;;;;;;2.92;2.53;;;;;;;;;;4948035;28;20218;-64
2023/08/18 13:36:35;;;;;;;3.13;2.90;;;;;;;;;;4945942;28;20245;-64
2023/08/18 13:39:02;;;;;;;3.83;2.53;;;;;;;;;;4943408;28;20684;-65
2023/08/18 13:41:29;;;;;;;3.53;2.85;;;;;;;;;;4947214;28;20221;-65
2023/08/18 13:43:57;;;;;;;6.80;2.60;;;;;;;;;;4947221;28;20751;-65
2023/08/18 13:46:24;;;;;;;2.65;2.53;;;;;;;;;;4948051;28;20210;-65
2023/08/18 13:48:51;;;;;;;3.85;2.72;;;;;;;;;;4947031;28;20543;-66
2023/08/18 13:51:18;;;;;;;4.13;3.28;;;;;;;;;;4945539;28;20218;-65
2023/08/18 13:53:45;;;;;;;3.20;3.00;;;;;;;;;;4944273;28;20210;-66
2023/08/18 13:56:13;;;;;;;5.20;3.15;;;;;;;;;;4947278;28;20202;-68
2023/08/18 13:58:40;;;;;;;2.67;2.47;;;;;;;;;;4945998;28;20230;-66
2023/08/18 14:01:08;;;;;;;4.70;3.05;;;;;;;;;;4941597;28;20223;-65
2023/08/18 14:03:35;;;;;;;2.80;2.50;;;;;;;;;;4944554;28;20210;-63
2023/08/18 14:06:02;;;;;;;3.00;2.80;;;;;;;;;;4947469;28;20301;-65
2023/08/18 14:08:29;;;;;;;2.70;2.50;;;;;;;;;;4944878;28;20210;-65
2023/08/18 14:10:56;;;;;;;3.17;2.80;;;;;;;;;;4944469;28;20211;-65
2023/08/18 14:13:24;;;;;;;3.28;2.67;;;;;;;;;;4945150;28;20211;-65
2023/08/18 14:15:51;;;;;;;2.70;2.50;;;;;;;;;;4942924;28;20305;-65
2023/08/18 14:18:19;;;;;;;2.83;2.22;;;;;;;;;;4941581;28;20237;-65
2023/08/18 14:20:46;;;;;;;2.20;2.10;;;;;;;;;;4947575;28;20210;-65
2023/08/18 14:23:14;;;;;;;2.40;2.00;;;;;;;;;;4947003;28;20237;-66
2023/08/18 14:25:41;;;;;;;3.28;2.10;;;;;;;;;;4946754;28;20234;-66
2023/08/18 14:28:08;;;;;;;2.70;2.60;;;;;;;;;;4946805;28;20611;-66
2023/08/18 14:30:36;;;;;;;2.13;2.00;;;;;;;;;;4947068;28;20259;-66
2023/08/18 14:33:03;;;;;;;1.85;1.75;;;;;;;;;;4944936;28;20206;-65
2023/08/18 14:35:31;;;;;;;2.90;2.28;;;;;;;;;;4937799;29;20849;-66
2023/08/18 14:37:58;;;;;;;4.10;1.77;;;;;;;;;;4944779;28;20715;-67
2023/08/18 14:40:26;;;;;;;1.70;1.70;;;;;;;;;;4946086;28;20233;-66
2023/08/18 14:42:53;;;;;;;3.53;1.70;;;;;;;;;;4946699;28;20799;-65
2023/08/18 14:45:20;;;;;;;2.25;1.73;;;;;;;;;;4945997;28;20211;-65